Sao Joao do Triunfo, Brazil
Current Conditions -  °F | °C
As of 10:00 PM on Friday 24 Oct 2014 (Local Time) from SBBI Reporting Station
Haze Haze  
Wind Chill: 64°   Ceiling: 400
Heat Index: 64°   Visibility: 2.5mi
Dew Point: 63°   Wind: 5mph
Humidity: 94%   Direction: 120°ESE
Pressure: 30.06"   Gusts: NA
Location:  25.68°S, 50.3°W
Report Text: SBBI 250000Z 12004KT 4000 BR BKN004 18/17 Q1018
Loading
Personal Weather Stations






























Interactive Weather Map
Tropical Storm Tracking
New forecast layout! Learn more

10-Day Weather Forecast

Advertisements
Track Severe Weather on mobile